createdAt,value
2022-07-25T00:00:25.167Z,8.32
2022-07-25T00:02:58.945Z,8.15
2022-07-25T00:05:26.486Z,7.95
2022-07-25T00:07:54.064Z,8.68
2022-07-25T00:10:27.894Z,8.38
2022-07-25T00:12:55.492Z,9.15
2022-07-25T00:15:22.989Z,8.55
2022-07-25T00:17:56.899Z,8.65
2022-07-25T00:20:24.518Z,9.00
2022-07-25T00:22:52.019Z,8.75
2022-07-25T00:25:25.907Z,8.43
2022-07-25T00:27:53.511Z,8.52
2022-07-25T00:30:21.025Z,8.88
2022-07-25T00:32:54.935Z,8.35
2022-07-25T00:35:22.400Z,7.80
2022-07-25T00:37:49.885Z,7.65
2022-07-25T00:40:23.978Z,8.07
2022-07-25T00:42:51.738Z,7.70
2022-07-25T00:45:19.265Z,7.25
2022-07-25T00:47:53.015Z,8.00
2022-07-25T00:50:20.478Z,7.80
2022-07-25T00:52:48.538Z,7.93
2022-07-25T00:55:22.926Z,7.38
2022-07-25T00:57:50.700Z,7.05
2022-07-25T01:00:18.706Z,7.65
2022-07-25T01:02:52.962Z,7.00
2022-07-25T01:05:20.419Z,7.40
2022-07-25T01:07:48.489Z,7.22
2022-07-25T01:10:23.014Z,7.25
2022-07-25T01:13:00.006Z,6.65
2022-07-25T01:15:34.959Z,7.07
2022-07-25T01:18:03.004Z,7.40
2022-07-25T01:20:32.370Z,7.57
2022-07-25T01:23:07.951Z,7.43
2022-07-25T01:25:35.556Z,7.40
2022-07-25T01:28:03.760Z,7.28
2022-07-25T01:30:37.957Z,7.07
2022-07-25T01:33:06.963Z,6.93
2022-07-25T01:35:37.005Z,7.07
2022-07-25T01:38:12.994Z,7.25
2022-07-25T01:40:41.608Z,6.75
2022-07-25T01:43:09.512Z,6.90
2022-07-25T01:45:43.920Z,6.70
2022-07-25T01:48:11.420Z,6.88
2022-07-25T01:50:38.925Z,7.40
2022-07-25T01:53:12.938Z,6.97
2022-07-25T01:55:40.502Z,7.22
2022-07-25T01:58:08.066Z,6.80
2022-07-25T02:00:41.975Z,7.80
2022-07-25T02:03:27.884Z,6.85
2022-07-25T02:06:01.969Z,7.43
2022-07-25T02:08:30.973Z,7.05
2022-07-25T02:11:18.917Z,7.22
2022-07-25T02:13:47.137Z,6.97
2022-07-25T02:16:14.639Z,7.55
2022-07-25T02:18:55.978Z,7.45
2022-07-25T02:21:23.456Z,7.05
2022-07-25T02:23:50.944Z,7.55
2022-07-25T02:26:24.977Z,7.07
2022-07-25T02:28:52.790Z,7.32
2022-07-25T02:31:20.344Z,7.20
2022-07-25T02:33:54.926Z,7.07
2022-07-25T02:36:22.506Z,6.20
2022-07-25T02:38:50.068Z,6.55
2022-07-25T02:41:23.960Z,7.20
2022-07-25T02:43:51.494Z,6.88
2022-07-25T02:46:19.121Z,7.45
2022-07-25T02:48:53.044Z,6.57
2022-07-25T02:51:20.531Z,7.18
2022-07-25T02:53:57.050Z,6.63
2022-07-25T02:56:32.217Z,6.70
2022-07-25T02:58:59.897Z,6.78
2022-07-25T03:01:27.752Z,7.10
2022-07-25T03:04:02.023Z,7.10
2022-07-25T03:06:29.663Z,6.78
2022-07-25T03:08:57.182Z,7.40
2022-07-25T03:11:30.956Z,7.47
2022-07-25T03:13:58.494Z,7.00
2022-07-25T03:16:26.386Z,6.82
2022-07-25T03:19:00.000Z,6.80
2022-07-25T03:21:27.472Z,6.93
2022-07-25T03:23:55.008Z,6.80
2022-07-25T03:26:28.983Z,6.80
2022-07-25T03:28:57.014Z,6.45
2022-07-25T03:31:24.603Z,7.00
2022-07-25T03:34:00.989Z,6.88
2022-07-25T03:36:28.610Z,6.93
2022-07-25T03:38:57.719Z,7.00
2022-07-25T03:41:32.035Z,7.05
2022-07-25T03:43:59.731Z,6.55
2022-07-25T03:46:27.520Z,6.72
2022-07-25T03:49:02.137Z,6.75
2022-07-25T03:51:29.638Z,6.32
2022-07-25T03:54:10.425Z,6.30
2022-07-25T03:56:43.326Z,6.00
2022-07-25T03:59:21.976Z,6.32
2022-07-25T04:01:50.666Z,7.20
2022-07-25T04:04:19.603Z,6.38
2022-07-25T04:06:54.011Z,6.47
2022-07-25T04:09:22.194Z,6.57
2022-07-25T04:12:03.065Z,7.00
2022-07-25T04:14:30.567Z,6.93
2022-07-25T04:16:58.155Z,6.35
2022-07-25T04:19:31.997Z,7.38
2022-07-25T04:22:00.331Z,6.80
2022-07-25T04:24:27.888Z,6.85
2022-07-25T04:27:02.023Z,6.65
2022-07-25T04:29:29.725Z,6.95
2022-07-25T04:31:58.234Z,6.45
2022-07-25T04:34:33.006Z,7.70
2022-07-25T04:37:00.514Z,7.15
2022-07-25T04:39:28.010Z,6.90
2022-07-25T04:42:02.018Z,7.55
2022-07-25T04:44:29.661Z,7.40
2022-07-25T04:46:57.107Z,7.50
2022-07-25T04:49:31.113Z,7.70
2022-07-25T04:51:58.523Z,7.70
2022-07-25T04:54:26.069Z,7.40
2022-07-25T04:57:00.220Z,7.55
2022-07-25T04:59:27.678Z,8.20
2022-07-25T05:01:55.261Z,8.02
2022-07-25T05:04:29.103Z,7.57
2022-07-25T05:06:56.649Z,7.97
2022-07-25T05:09:24.208Z,7.72
2022-07-25T05:11:58.255Z,8.38
2022-07-25T05:14:25.714Z,8.20
2022-07-25T05:16:53.206Z,8.25
2022-07-25T05:19:27.024Z,8.15
2022-07-25T05:21:54.685Z,8.30
2022-07-25T05:24:25.284Z,7.93
2022-07-25T05:27:00.252Z,8.57
2022-07-25T05:29:29.123Z,8.07
2022-07-25T05:31:56.931Z,7.97
2022-07-25T05:34:31.144Z,7.53
2022-07-25T05:36:59.509Z,8.20
2022-07-25T05:39:27.946Z,8.55
2022-07-25T05:42:02.102Z,8.13
2022-07-25T05:44:29.933Z,8.27
2022-07-25T05:46:57.877Z,8.02
2022-07-25T05:49:33.237Z,9.00
2022-07-25T05:52:01.344Z,7.65
2022-07-25T05:54:29.220Z,7.97
2022-07-25T05:57:03.121Z,8.10
2022-07-25T05:59:31.391Z,8.20
2022-07-25T06:01:59.770Z,6.95
2022-07-25T06:04:34.125Z,7.75
2022-07-25T06:07:01.982Z,7.45
2022-07-25T06:09:32.096Z,7.90
2022-07-25T06:12:07.110Z,7.78
2022-07-25T06:14:36.379Z,7.63
2022-07-25T06:17:04.184Z,7.97
2022-07-25T06:19:39.239Z,7.80
2022-07-25T06:22:08.452Z,8.10
2022-07-25T06:24:36.749Z,7.97
2022-07-25T06:27:14.096Z,7.40
2022-07-25T06:29:45.263Z,7.47
2022-07-25T06:32:19.153Z,7.50
2022-07-25T06:34:47.024Z,7.63
2022-07-25T06:37:16.239Z,7.10
2022-07-25T06:39:52.101Z,7.30
2022-07-25T06:42:22.408Z,7.63
2022-07-25T06:44:50.705Z,6.90
2022-07-25T06:47:25.111Z,7.68
2022-07-25T06:49:52.811Z,7.28
2022-07-25T06:52:20.554Z,7.90
2022-07-25T06:54:55.095Z,7.15
2022-07-25T06:57:23.772Z,7.55
2022-07-25T06:59:51.535Z,6.88
2022-07-25T07:02:27.159Z,6.93
2022-07-25T07:04:55.075Z,6.68
2022-07-25T07:07:22.989Z,7.40
2022-07-25T07:09:57.189Z,7.00
2022-07-25T07:12:31.350Z,7.20
2022-07-25T07:15:06.179Z,6.85
2022-07-25T07:17:34.161Z,7.70
2022-07-25T07:20:02.639Z,6.63
2022-07-25T07:22:37.556Z,6.72
2022-07-25T07:25:06.304Z,7.03
2022-07-25T07:27:34.456Z,6.93
2022-07-25T07:30:09.502Z,6.95
2022-07-25T07:32:37.690Z,6.85
2022-07-25T07:35:06.303Z,6.38
2022-07-25T07:37:43.572Z,6.72
2022-07-25T07:40:17.780Z,7.55
2022-07-25T07:42:55.297Z,6.18
2022-07-25T07:45:26.015Z,6.88
2022-07-25T07:47:55.138Z,6.70
2022-07-25T07:50:33.315Z,5.95
2022-07-25T07:53:01.578Z,6.70
2022-07-25T07:56:02.329Z,6.68
2022-07-25T07:58:30.281Z,6.82
2022-07-25T08:00:58.249Z,6.25
2022-07-25T08:03:36.150Z,6.20
2022-07-25T08:06:05.161Z,6.22
2022-07-25T08:08:40.249Z,5.88
2022-07-25T08:11:21.488Z,5.60
2022-07-25T08:13:56.320Z,5.78
2022-07-25T08:16:24.341Z,4.90
2022-07-25T08:18:52.382Z,5.22
2022-07-25T08:21:27.264Z,4.75
2022-07-25T08:23:55.311Z,5.10
2022-07-25T08:26:23.226Z,5.32
2022-07-25T08:29:17.467Z,4.95
2022-07-25T08:31:45.698Z,5.43
2022-07-25T08:34:20.323Z,5.13
2022-07-25T08:36:48.592Z,5.38
2022-07-25T08:39:16.976Z,5.07
2022-07-25T08:41:52.268Z,5.57
2022-07-25T08:44:21.570Z,5.10
2022-07-25T08:46:50.097Z,4.93
2022-07-25T08:49:25.209Z,5.10
2022-07-25T08:51:53.153Z,5.18
2022-07-25T08:54:21.072Z,5.00
2022-07-25T08:57:04.522Z,5.10
2022-07-25T08:59:33.534Z,5.10
2022-07-25T09:02:04.110Z,5.30
2022-07-25T09:04:42.158Z,4.95
2022-07-25T09:07:10.274Z,5.20
2022-07-25T09:09:39.733Z,4.95
2022-07-25T09:12:15.191Z,4.95
2022-07-25T09:14:44.455Z,4.60
2022-07-25T09:17:22.331Z,5.05
2022-07-25T09:20:04.240Z,4.97
2022-07-25T09:22:32.373Z,5.15
2022-07-25T09:25:00.335Z,4.72
2022-07-25T09:27:41.158Z,4.93
2022-07-25T09:30:16.382Z,5.60
2022-07-25T09:32:51.211Z,5.18
2022-07-25T09:35:29.621Z,4.95
2022-07-25T09:38:18.290Z,4.95
2022-07-25T09:40:57.900Z,4.90
2022-07-25T09:43:47.254Z,5.22
2022-07-25T09:46:15.228Z,4.60
2022-07-25T09:48:46.318Z,5.03
2022-07-25T09:51:21.334Z,5.00
2022-07-25T09:53:49.508Z,4.53
2022-07-25T09:56:18.411Z,4.50
2022-07-25T09:58:53.258Z,4.82
2022-07-25T10:01:34.844Z,4.75
2022-07-25T10:04:29.228Z,4.63
2022-07-25T10:07:15.840Z,5.25
2022-07-25T10:10:01.537Z,5.05
2022-07-25T10:12:38.610Z,5.25
2022-07-25T10:15:21.287Z,5.28
2022-07-25T10:17:50.467Z,5.50
2022-07-25T10:20:35.193Z,4.75
2022-07-25T10:23:03.805Z,5.10
2022-07-25T10:25:32.051Z,5.55
2022-07-25T10:28:15.304Z,5.00
2022-07-25T10:30:43.837Z,4.60
2022-07-25T10:33:28.240Z,4.75
2022-07-25T10:36:07.978Z,4.80
2022-07-25T10:38:45.166Z,5.40
2022-07-25T10:41:15.572Z,5.15
2022-07-25T10:43:53.234Z,4.55
2022-07-25T10:46:23.680Z,5.10
2022-07-25T10:49:07.427Z,4.97
2022-07-25T10:51:41.615Z,5.10
2022-07-25T10:54:24.167Z,5.03
2022-07-25T10:57:00.765Z,4.80
2022-07-25T10:59:43.229Z,4.95
2022-07-25T11:02:16.519Z,5.38
2022-07-25T11:04:52.305Z,5.30
2022-07-25T11:07:19.919Z,5.25
2022-07-25T11:10:08.043Z,4.50
2022-07-25T11:12:43.004Z,4.85
2022-07-25T11:15:20.958Z,4.65
2022-07-25T11:17:55.776Z,5.05
2022-07-25T11:20:30.017Z,4.88
2022-07-25T11:22:57.565Z,5.25
2022-07-25T11:25:25.497Z,5.20
2022-07-25T11:28:10.982Z,5.40
2022-07-25T11:30:38.656Z,5.10
2022-07-25T11:33:08.886Z,5.30
2022-07-25T11:35:45.140Z,5.35
2022-07-25T11:38:14.943Z,5.72
2022-07-25T11:40:53.210Z,5.43
2022-07-25T11:43:26.142Z,5.13
2022-07-25T11:46:09.243Z,5.50
2022-07-25T11:48:40.285Z,5.30
2022-07-25T11:51:25.157Z,6.10
2022-07-25T11:53:53.328Z,5.80
2022-07-25T11:56:41.964Z,6.22
2022-07-25T11:59:17.338Z,6.18
2022-07-25T12:01:45.696Z,6.40
2022-07-25T12:04:16.469Z,5.90
2022-07-25T12:06:56.225Z,6.03
2022-07-25T12:09:23.812Z,6.22
2022-07-25T12:12:18.272Z,6.25
2022-07-25T12:14:46.136Z,6.03
2022-07-25T12:17:13.749Z,6.38
2022-07-25T12:19:52.519Z,6.13
2022-07-25T12:22:20.348Z,5.75
2022-07-25T12:24:48.044Z,6.32
2022-07-25T12:27:22.292Z,6.35
2022-07-25T12:29:49.994Z,5.80
2022-07-25T12:32:17.819Z,5.78
2022-07-25T12:34:53.307Z,6.15
2022-07-25T12:37:21.819Z,6.20
2022-07-25T12:39:49.866Z,6.07
2022-07-25T12:42:29.768Z,6.40
2022-07-25T12:44:57.819Z,6.55
2022-07-25T12:47:27.293Z,6.82
2022-07-25T12:50:01.723Z,6.25
2022-07-25T12:52:29.829Z,6.38
2022-07-25T12:54:57.360Z,6.43
2022-07-25T12:57:31.620Z,6.03
2022-07-25T13:00:05.982Z,6.25
2022-07-25T13:02:40.766Z,6.57
2022-07-25T13:05:09.105Z,6.57
2022-07-25T13:07:36.974Z,6.32
2022-07-25T13:10:12.772Z,6.93
2022-07-25T13:12:47.263Z,6.05
2022-07-25T13:15:21.686Z,6.50
2022-07-25T13:17:49.493Z,6.70
2022-07-25T13:20:17.120Z,6.68
2022-07-25T13:22:51.846Z,6.38
2022-07-25T13:25:19.513Z,6.70
2022-07-25T13:27:49.316Z,6.80
2022-07-25T13:30:23.621Z,7.30
2022-07-25T13:32:52.688Z,7.30
2022-07-25T13:35:22.536Z,7.13
2022-07-25T13:37:58.691Z,7.65
2022-07-25T13:40:26.650Z,7.28
2022-07-25T13:42:54.291Z,6.55
2022-07-25T13:45:29.696Z,7.18
2022-07-25T13:48:28.465Z,6.93
2022-07-25T13:51:00.824Z,7.50
2022-07-25T13:53:31.335Z,7.18
2022-07-25T13:56:00.056Z,6.85
2022-07-25T13:58:36.193Z,7.18
2022-07-25T14:01:04.300Z,7.60
2022-07-25T14:03:33.833Z,7.40
2022-07-25T14:06:08.498Z,6.57
2022-07-25T14:08:36.289Z,6.88
2022-07-25T14:11:17.689Z,6.43
2022-07-25T14:13:48.144Z,7.25
2022-07-25T14:16:17.628Z,6.85
2022-07-25T14:18:52.210Z,6.82
2022-07-25T14:21:19.844Z,7.15
2022-07-25T14:23:47.589Z,6.82
2022-07-25T14:26:22.248Z,7.65
2022-07-25T14:28:50.081Z,7.03
2022-07-25T14:31:19.237Z,6.82
2022-07-25T14:33:54.255Z,7.22
2022-07-25T14:36:22.374Z,6.95
2022-07-25T14:38:49.964Z,7.85
2022-07-25T14:41:24.426Z,7.65
2022-07-25T14:43:52.071Z,7.57
2022-07-25T14:46:20.262Z,7.50
2022-07-25T14:48:55.281Z,7.43
2022-07-25T14:51:23.563Z,7.15
2022-07-25T14:53:53.427Z,7.55
2022-07-25T14:56:28.243Z,7.20
2022-07-25T14:58:55.848Z,6.85
2022-07-25T15:01:25.440Z,6.63
2022-07-25T15:04:03.199Z,6.57
2022-07-25T15:06:31.395Z,6.90
2022-07-25T15:08:59.069Z,6.75
2022-07-25T15:11:33.213Z,6.80
2022-07-25T15:14:07.440Z,7.18
2022-07-25T15:16:42.448Z,6.63
2022-07-25T15:19:18.177Z,6.40
2022-07-25T15:21:53.216Z,7.32
2022-07-25T15:24:23.555Z,6.85
2022-07-25T15:27:00.265Z,6.43
2022-07-25T15:29:28.756Z,6.88
2022-07-25T15:31:57.558Z,6.72
2022-07-25T15:34:31.240Z,6.47
2022-07-25T15:36:58.911Z,6.72
2022-07-25T15:39:30.528Z,7.07
2022-07-25T15:42:05.321Z,6.20
2022-07-25T15:44:33.098Z,6.57
2022-07-25T15:47:02.723Z,6.65
2022-07-25T15:49:37.300Z,5.72
2022-07-25T15:52:05.451Z,6.45
2022-07-25T15:54:33.553Z,6.60
2022-07-25T15:57:08.252Z,5.95
2022-07-25T15:59:36.154Z,6.50
2022-07-25T16:02:16.818Z,5.80
2022-07-25T16:04:45.015Z,6.07
2022-07-25T16:07:13.078Z,6.13
2022-07-25T16:09:49.874Z,6.25
2022-07-25T16:12:28.439Z,5.93
2022-07-25T16:15:03.875Z,6.03
2022-07-25T16:17:31.855Z,5.35
2022-07-25T16:19:59.891Z,5.63
2022-07-25T16:22:39.882Z,6.30
2022-07-25T16:25:07.917Z,5.85
2022-07-25T16:27:36.169Z,5.60
2022-07-25T16:30:12.170Z,5.22
2022-07-25T16:32:39.920Z,6.20
2022-07-25T16:35:07.964Z,5.72
2022-07-25T16:37:42.883Z,6.10
2022-07-25T16:40:11.025Z,6.40
2022-07-25T16:42:38.999Z,6.07
2022-07-25T16:45:13.986Z,6.10
2022-07-25T16:47:43.936Z,6.03
2022-07-25T16:50:11.799Z,5.65
2022-07-25T16:52:46.209Z,6.30
2022-07-25T16:55:14.018Z,6.07
2022-07-25T16:57:41.803Z,5.68
2022-07-25T17:00:18.437Z,5.70
2022-07-25T17:02:46.889Z,5.95
2022-07-25T17:05:25.897Z,5.60
2022-07-25T17:07:59.438Z,5.70
2022-07-25T17:10:34.863Z,5.43
2022-07-25T17:13:12.088Z,5.40
2022-07-25T17:15:46.939Z,5.55
2022-07-25T17:18:14.788Z,5.97
2022-07-25T17:20:42.556Z,5.55
2022-07-25T17:23:17.895Z,6.30
2022-07-25T17:25:50.634Z,5.70
2022-07-25T17:28:24.940Z,6.32
2022-07-25T17:30:54.800Z,5.82
2022-07-25T17:33:22.456Z,5.70
2022-07-25T17:35:59.838Z,5.90
2022-07-25T17:38:34.378Z,5.65
2022-07-25T17:41:08.863Z,6.20
2022-07-25T17:43:36.472Z,5.57
2022-07-25T17:46:04.244Z,5.50
2022-07-25T17:48:38.912Z,5.45
2022-07-25T17:51:06.749Z,5.05
2022-07-25T17:53:34.364Z,5.57
2022-07-25T17:56:09.964Z,5.55
2022-07-25T17:58:38.486Z,5.55
2022-07-25T18:01:10.234Z,4.57
2022-07-25T18:03:44.852Z,4.93
2022-07-25T18:06:12.662Z,4.90
2022-07-25T18:08:40.395Z,4.55
2022-07-25T18:11:14.853Z,4.63
2022-07-25T18:13:49.059Z,4.53
2022-07-25T18:16:22.922Z,4.60
2022-07-25T18:18:50.757Z,4.40
2022-07-25T18:21:18.195Z,4.03
2022-07-25T18:23:51.890Z,4.07
2022-07-25T18:26:20.614Z,3.60
2022-07-25T18:28:48.834Z,3.78
2022-07-25T18:31:22.865Z,3.10
2022-07-25T18:33:50.516Z,4.00
2022-07-25T18:36:18.232Z,3.17
2022-07-25T18:38:52.107Z,3.83
2022-07-25T18:41:29.019Z,3.50
2022-07-25T18:44:04.060Z,3.30
2022-07-25T18:46:33.310Z,3.58
2022-07-25T18:49:02.125Z,3.28
2022-07-25T18:51:35.967Z,3.60
2022-07-25T18:54:03.788Z,3.30
2022-07-25T18:56:31.599Z,3.50
2022-07-25T18:59:06.135Z,3.05
2022-07-25T19:01:35.517Z,2.95
2022-07-25T19:04:03.669Z,2.83
2022-07-25T19:06:37.900Z,2.70
2022-07-25T19:09:05.579Z,2.80
2022-07-25T19:11:55.004Z,2.97
2022-07-25T19:14:26.034Z,2.70
2022-07-25T19:16:54.539Z,2.88
2022-07-25T19:19:29.878Z,2.65
2022-07-25T19:21:57.572Z,2.42
2022-07-25T19:24:25.487Z,2.50
2022-07-25T19:27:00.100Z,2.90
2022-07-25T19:29:27.828Z,2.53
2022-07-25T19:31:56.035Z,2.75
2022-07-25T19:34:31.061Z,2.30
2022-07-25T19:37:05.269Z,2.75
2022-07-25T19:39:39.095Z,2.50
2022-07-25T19:42:08.841Z,2.40
2022-07-25T19:44:37.550Z,2.55
2022-07-25T19:47:12.160Z,2.55
2022-07-25T19:49:40.997Z,2.80
2022-07-25T19:52:10.509Z,2.95
2022-07-25T19:54:45.349Z,2.60
2022-07-25T19:57:13.218Z,2.47
2022-07-25T19:59:40.845Z,2.38
2022-07-25T20:02:15.966Z,2.28
2022-07-25T20:04:43.702Z,2.40
2022-07-25T20:07:11.280Z,2.40
2022-07-25T20:09:44.917Z,2.45
2022-07-25T20:12:19.035Z,2.20
2022-07-25T20:14:52.892Z,2.35
2022-07-25T20:17:20.488Z,2.10
2022-07-25T20:19:48.099Z,2.30
2022-07-25T20:22:24.876Z,2.50
2022-07-25T20:24:52.679Z,2.10
2022-07-25T20:27:20.411Z,2.30
2022-07-25T20:29:54.948Z,2.30
2022-07-25T20:32:23.026Z,2.35
2022-07-25T20:34:52.664Z,2.47
2022-07-25T20:37:27.012Z,2.05
2022-07-25T20:39:54.933Z,1.77
2022-07-25T20:42:23.097Z,2.05
2022-07-25T20:44:56.937Z,2.08
2022-07-25T20:47:25.153Z,2.53
2022-07-25T20:49:52.774Z,2.10
2022-07-25T20:52:26.960Z,2.13
2022-07-25T20:54:54.945Z,2.42
2022-07-25T20:57:22.710Z,2.10
2022-07-25T20:59:59.914Z,2.00
2022-07-25T21:02:33.429Z,2.00
2022-07-25T21:07:40.530Z,2.35
2022-07-25T21:10:26.855Z,2.67
2022-07-25T21:13:01.189Z,2.20
2022-07-25T21:15:36.977Z,2.40
2022-07-25T21:18:05.280Z,2.35
2022-07-25T21:20:32.992Z,2.50
2022-07-25T21:23:06.901Z,2.25
2022-07-25T21:25:34.442Z,2.20
2022-07-25T21:28:03.359Z,2.10
2022-07-25T21:30:36.903Z,2.40
2022-07-25T21:33:05.990Z,2.15
2022-07-25T21:35:53.166Z,2.00
2022-07-25T21:38:27.418Z,1.88
2022-07-25T21:41:03.910Z,1.80
2022-07-25T21:43:31.556Z,2.40
2022-07-25T21:45:59.160Z,2.00
2022-07-25T21:48:51.969Z,2.25
2022-07-25T21:51:23.258Z,2.08
2022-07-25T21:53:59.948Z,2.70
2022-07-25T21:56:27.551Z,2.03
2022-07-25T21:58:55.197Z,2.50
2022-07-25T22:01:29.006Z,1.90
2022-07-25T22:03:56.854Z,2.20
2022-07-25T22:06:46.891Z,2.30
2022-07-25T22:09:21.180Z,2.53
2022-07-25T22:12:01.927Z,2.33
2022-07-25T22:14:37.828Z,2.05
2022-07-25T22:17:11.905Z,2.15
2022-07-25T22:19:40.079Z,2.13
2022-07-25T22:22:07.991Z,2.30
2022-07-25T22:24:46.303Z,2.15
2022-07-25T22:27:14.385Z,1.90
2022-07-25T22:29:48.917Z,2.10
2022-07-25T22:32:16.313Z,2.22
2022-07-25T22:34:43.862Z,2.38
2022-07-25T22:37:18.005Z,1.83
2022-07-25T22:39:45.600Z,2.30
2022-07-25T22:42:16.098Z,2.00
2022-07-25T22:44:50.937Z,1.90
2022-07-25T22:47:18.531Z,2.25
2022-07-25T22:49:46.031Z,2.10
2022-07-25T22:52:19.907Z,1.95
2022-07-25T22:54:47.334Z,2.13
2022-07-25T22:57:14.893Z,1.50
2022-07-25T22:59:48.907Z,1.33
2022-07-25T23:02:16.546Z,1.13
2022-07-25T23:04:44.604Z,1.45
2022-07-25T23:07:18.984Z,1.40
2022-07-25T23:09:46.434Z,1.55
2022-07-25T23:12:27.915Z,1.48
2022-07-25T23:14:55.422Z,1.30
2022-07-25T23:17:24.597Z,1.60
2022-07-25T23:20:00.947Z,1.20
2022-07-25T23:22:29.512Z,1.38
2022-07-25T23:24:57.451Z,1.30
2022-07-25T23:27:33.272Z,1.42
2022-07-25T23:30:07.091Z,1.30
2022-07-25T23:32:40.977Z,1.10
2022-07-25T23:35:08.940Z,1.30
2022-07-25T23:37:36.519Z,1.42
2022-07-25T23:40:10.977Z,1.17
2022-07-25T23:42:46.018Z,1.10
2022-07-25T23:45:21.957Z,1.40
2022-07-25T23:47:53.021Z,1.40
2022-07-25T23:50:20.598Z,1.40
2022-07-25T23:52:54.991Z,1.40
2022-07-25T23:55:22.622Z,1.27
2022-07-25T23:57:50.218Z,1.40
